Time;durP1;ratioP1;P1;durP2;ratioP2;P2;SDS_P1;SDS_P2;PMS_P1;PMS_P2;Temp;Humidity;BMP_temperature;BMP_pressure;BME280_temperature;BME280_humidity;BME280_pressure;Samples;Min_cycle;Max_cycle;Signal;HPM_P1;HPM_P2
2021/03/09 00:01:58;;;;;;;69.53;42.33;;;4.90;99.90;;;;;;5076731;28;20469;-74
2021/03/09 00:04:24;;;;;;;62.00;40.90;;;4.90;99.90;;;;;;5081267;28;20528;-73
2021/03/09 00:06:53;;;;;;;66.43;41.47;;;4.80;99.90;;;;;;5074908;28;20561;-71
2021/03/09 00:09:19;;;;;;;60.90;40.70;;;4.80;99.90;;;;;;5082763;28;20856;-74
2021/03/09 00:11:46;;;;;;;62.80;40.37;;;4.70;99.90;;;;;;5080777;28;20481;-73
2021/03/09 00:14:13;;;;;;;62.03;40.43;;;4.80;99.90;;;;;;5081750;28;20506;-71
2021/03/09 00:16:39;;;;;;;64.27;41.50;;;4.80;99.90;;;;;;5078538;28;20458;-75
2021/03/09 00:19:06;;;;;;;55.00;39.53;;;4.80;99.90;;;;;;5080979;28;20474;-73
2021/03/09 00:21:33;;;;;;;57.33;37.77;;;4.80;99.90;;;;;;5067627;28;20973;-74
2021/03/09 00:23:59;;;;;;;63.83;39.83;;;4.90;99.90;;;;;;5074418;28;20486;-74
2021/03/09 00:26:26;;;;;;;55.87;39.50;;;4.90;99.90;;;;;;5080631;28;20519;-73
2021/03/09 00:28:54;;;;;;;59.33;41.67;;;5.00;99.90;;;;;;5074516;28;20508;-75
2021/03/09 00:31:21;;;;;;;51.97;36.80;;;5.00;99.90;;;;;;5073921;28;20893;-76
2021/03/09 00:33:48;;;;;;;59.83;40.00;;;4.90;99.90;;;;;;5078747;28;20958;-74
2021/03/09 00:36:14;;;;;;;64.73;38.93;;;4.80;99.90;;;;;;5080343;28;20587;-72
2021/03/09 00:38:40;;;;;;;57.30;38.47;;;4.80;99.90;;;;;;5074065;28;20480;-74
2021/03/09 00:41:07;;;;;;;56.20;39.97;;;4.90;99.90;;;;;;5073137;28;20463;-72
2021/03/09 00:43:34;;;;;;;56.00;39.00;;;4.90;99.90;;;;;;5076552;28;20473;-71
2021/03/09 00:46:02;;;;;;;52.67;38.33;;;4.90;99.90;;;;;;5078335;28;20458;-70
2021/03/09 00:48:36;;;;;;;57.93;39.70;;;4.90;99.90;;;;;;5072743;28;20467;-75
2021/03/09 00:51:02;;;;;;;62.93;41.97;;;4.80;99.90;;;;;;5082602;28;21067;-72
2021/03/09 00:53:30;;;;;;;66.07;42.70;;;4.90;99.90;;;;;;5080478;28;20835;-75
2021/03/09 00:55:57;;;;;;;64.77;42.77;;;4.80;99.90;;;;;;5080852;28;20446;-71
2021/03/09 00:58:23;;;;;;;61.40;42.63;;;4.80;99.90;;;;;;5079594;28;20977;-72
2021/03/09 01:00:50;;;;;;;59.83;40.83;;;4.70;99.90;;;;;;5079257;28;20455;-69
2021/03/09 01:03:17;;;;;;;67.27;42.80;;;4.70;99.90;;;;;;5073780;28;20470;-72
2021/03/09 01:05:43;;;;;;;61.07;41.80;;;4.60;99.90;;;;;;5075307;28;20465;-76
2021/03/09 01:08:10;;;;;;;54.67;41.70;;;4.60;99.90;;;;;;5075463;28;20486;-75
2021/03/09 01:10:38;;;;;;;62.87;44.03;;;4.50;99.90;;;;;;5077795;28;20489;-74
2021/03/09 01:13:05;;;;;;;71.27;46.57;;;4.50;99.90;;;;;;5076805;28;20493;-70
2021/03/09 01:15:31;;;;;;;60.97;43.17;;;4.40;99.90;;;;;;5079005;28;20474;-70
2021/03/09 01:17:58;;;;;;;69.13;45.07;;;4.40;99.90;;;;;;5080799;28;20750;-72
2021/03/09 01:20:25;;;;;;;68.07;45.97;;;4.30;99.90;;;;;;5079488;28;20443;-71
2021/03/09 01:22:51;;;;;;;71.40;46.73;;;4.20;99.90;;;;;;5075668;28;20473;-71
2021/03/09 01:25:18;;;;;;;57.63;44.47;;;4.30;99.90;;;;;;5075981;28;20462;-72
2021/03/09 01:27:44;;;;;;;72.33;45.33;;;4.30;99.90;;;;;;5077656;28;20483;-74
2021/03/09 01:30:12;;;;;;;68.00;46.37;;;4.30;99.90;;;;;;5079763;28;20553;-71
2021/03/09 01:32:39;;;;;;;70.90;46.20;;;4.30;99.90;;;;;;5072939;28;20827;-73
2021/03/09 01:35:07;;;;;;;71.70;44.53;;;4.30;99.90;;;;;;5081342;28;20458;-74
2021/03/09 01:37:35;;;;;;;62.83;44.33;;;4.30;99.90;;;;;;5078493;28;20461;-75
2021/03/09 01:40:03;;;;;;;71.93;46.20;;;4.30;99.90;;;;;;5071780;28;20463;-71
2021/03/09 01:42:30;;;;;;;64.07;44.90;;;4.20;99.90;;;;;;5077778;28;20823;-73
2021/03/09 01:44:56;;;;;;;71.63;47.90;;;4.20;99.90;;;;;;5074555;28;20493;-74
2021/03/09 01:47:23;;;;;;;70.53;48.00;;;4.30;99.90;;;;;;5081484;28;20504;-73
2021/03/09 01:49:51;;;;;;;69.70;46.40;;;4.30;99.90;;;;;;5083271;28;20463;-75
2021/03/09 01:52:17;;;;;;;84.10;48.10;;;4.40;99.90;;;;;;5085603;28;20507;-71
2021/03/09 01:54:45;;;;;;;70.97;47.20;;;4.30;99.90;;;;;;5076836;28;20462;-75
2021/03/09 01:57:12;;;;;;;70.70;48.90;;;4.30;99.90;;;;;;5082005;28;20461;-74
2021/03/09 01:59:41;;;;;;;75.17;48.20;;;4.30;99.90;;;;;;5085478;28;20485;-76
2021/03/09 02:02:08;;;;;;;73.80;48.63;;;4.30;99.90;;;;;;5074598;28;20473;-72
2021/03/09 02:04:35;;;;;;;66.43;48.47;;;4.40;99.90;;;;;;5083301;28;20469;-75
2021/03/09 02:07:02;;;;;;;73.23;48.80;;;4.40;99.90;;;;;;5074422;28;20483;-75
2021/03/09 02:09:30;;;;;;;78.83;50.30;;;4.40;99.90;;;;;;5079558;28;20956;-72
2021/03/09 02:12:10;;;;;;;83.80;49.27;;;4.40;99.90;;;;;;5080611;28;20496;-72
2021/03/09 02:14:44;;;;;;;77.97;50.03;;;4.40;99.90;;;;;;5071135;28;21424;-71
2021/03/09 02:17:16;;;;;;;75.97;48.37;;;4.30;99.90;;;;;;5078533;28;20454;-73
2021/03/09 02:20:24;;;;;;;80.80;49.13;;;4.30;99.90;;;;;;5078914;28;20834;-73
2021/03/09 02:23:22;;;;;;;82.90;48.70;;;4.30;99.90;;;;;;5081122;28;20987;-74
2021/03/09 02:26:03;;;;;;;85.83;51.27;;;4.20;99.90;;;;;;5083606;28;20466;-72
2021/03/09 02:28:37;;;;;;;71.07;49.97;;;4.20;99.90;;;;;;5075249;28;20473;-74
2021/03/09 02:31:06;;;;;;;70.50;49.40;;;4.20;99.90;;;;;;5076242;28;20496;-73
2021/03/09 02:33:39;;;;;;;76.73;47.97;;;4.30;99.90;;;;;;5079666;28;20463;-75
2021/03/09 02:36:08;;;;;;;79.20;48.80;;;4.20;99.90;;;;;;5079115;28;20462;-73
2021/03/09 02:38:44;;;;;;;71.67;49.90;;;4.10;99.90;;;;;;5076227;28;20454;-74
2021/03/09 02:41:14;;;;;;;75.87;50.23;;;4.10;99.90;;;;;;5068276;28;20454;-73
2021/03/09 02:43:43;;;;;;;84.40;51.93;;;4.00;99.90;;;;;;5084991;28;20461;-74
2021/03/09 02:46:13;;;;;;;81.50;50.67;;;4.00;99.90;;;;;;5075838;28;20503;-74
2021/03/09 02:48:41;;;;;;;87.17;51.83;;;4.00;99.90;;;;;;5087150;28;20497;-74
2021/03/09 02:51:10;;;;;;;98.57;54.03;;;4.00;99.90;;;;;;5083198;28;20485;-73
2021/03/09 02:53:42;;;;;;;86.13;52.10;;;4.10;99.90;;;;;;5074907;28;20459;-74
2021/03/09 02:56:10;;;;;;;83.67;51.20;;;4.00;99.90;;;;;;5068185;28;20466;-73
2021/03/09 02:58:38;;;;;;;89.90;51.43;;;4.10;99.90;;;;;;5083776;28;20501;-73
2021/03/09 03:01:06;;;;;;;95.50;52.17;;;4.00;99.90;;;;;;5081880;28;20458;-73
2021/03/09 03:03:34;;;;;;;85.53;51.77;;;4.00;99.90;;;;;;5083551;28;20477;-74
2021/03/09 03:06:01;;;;;;;87.80;53.10;;;3.90;99.90;;;;;;5081418;28;20465;-72
2021/03/09 03:08:30;;;;;;;89.00;55.00;;;4.00;99.90;;;;;;5083048;28;20463;-71
2021/03/09 03:10:57;;;;;;;102.20;57.07;;;3.90;99.90;;;;;;5076948;28;20522;-74
2021/03/09 03:13:25;;;;;;;93.20;53.63;;;3.90;99.90;;;;;;5078614;28;20485;-74
2021/03/09 03:15:54;;;;;;;104.40;56.37;;;3.90;99.90;;;;;;5074388;28;20988;-73
2021/03/09 03:18:23;;;;;;;96.00;55.00;;;3.90;99.90;;;;;;5073665;28;20463;-73
2021/03/09 03:20:51;;;;;;;81.93;52.57;;;4.00;99.90;;;;;;5083050;28;20467;-73
2021/03/09 03:23:20;;;;;;;99.47;55.80;;;4.00;99.90;;;;;;5080665;28;20511;-71
2021/03/09 03:25:49;;;;;;;104.50;58.63;;;4.00;99.90;;;;;;5082234;28;21442;-70
2021/03/09 03:28:16;;;;;;;105.70;59.10;;;4.00;99.90;;;;;;5079480;28;20983;-73
2021/03/09 03:30:42;;;;;;;93.70;57.50;;;3.90;99.90;;;;;;5076225;28;20520;-73
2021/03/09 03:33:10;;;;;;;101.33;56.20;;;4.00;99.90;;;;;;5078654;28;20999;-73
2021/03/09 03:35:36;;;;;;;101.23;59.37;;;3.90;99.90;;;;;;5073296;28;20839;-72
2021/03/09 03:38:04;;;;;;;96.97;57.07;;;3.80;99.90;;;;;;5075684;28;20454;-71
2021/03/09 03:40:31;;;;;;;96.50;58.47;;;3.80;99.90;;;;;;5086305;28;20513;-72
2021/03/09 03:42:57;;;;;;;90.77;58.30;;;3.80;99.90;;;;;;5080796;28;20469;-71
2021/03/09 03:45:25;;;;;;;90.60;56.43;;;3.80;99.90;;;;;;5079880;28;20463;-74
2021/03/09 03:47:55;;;;;;;100.67;58.03;;;3.80;99.90;;;;;;5077296;28;20471;-74
2021/03/09 03:50:22;;;;;;;98.37;53.87;;;3.80;99.90;;;;;;5073554;28;20512;-72
2021/03/09 03:52:58;;;;;;;87.13;53.10;;;3.90;99.90;;;;;;5082110;28;21021;-73
2021/03/09 03:55:48;;;;;;;80.20;52.60;;;3.80;99.90;;;;;;5082792;28;20472;-72
2021/03/09 03:58:23;;;;;;;81.70;51.63;;;3.90;99.90;;;;;;5077210;28;20485;-73
2021/03/09 04:00:52;;;;;;;84.80;52.00;;;3.80;99.90;;;;;;5077312;28;20462;-74
2021/03/09 04:03:20;;;;;;;82.80;50.63;;;3.80;99.90;;;;;;5070735;28;20455;-74
2021/03/09 04:05:49;;;;;;;88.17;54.03;;;3.80;99.90;;;;;;5065326;28;20470;-73
2021/03/09 04:08:17;;;;;;;89.90;55.50;;;3.70;99.90;;;;;;5077396;28;20467;-73
2021/03/09 04:10:48;;;;;;;93.07;52.70;;;3.70;99.90;;;;;;5074748;28;20493;-73
2021/03/09 04:13:16;;;;;;;77.53;47.47;;;3.70;99.90;;;;;;5073403;28;20536;-72
2021/03/09 04:15:44;;;;;;;96.73;53.47;;;3.70;99.90;;;;;;5076996;28;20459;-71
2021/03/09 04:18:12;;;;;;;87.77;52.87;;;3.70;99.90;;;;;;5071037;28;20463;-72
2021/03/09 04:20:43;;;;;;;89.07;52.40;;;3.70;99.90;;;;;;5079975;28;20470;-73
2021/03/09 04:23:10;;;;;;;90.43;52.97;;;3.70;99.90;;;;;;5066074;28;20501;-73
2021/03/09 04:25:41;;;;;;;92.80;54.97;;;3.60;99.90;;;;;;5083356;28;20874;-74
2021/03/09 04:28:08;;;;;;;88.80;52.47;;;3.60;99.90;;;;;;5076106;28;20481;-72
2021/03/09 04:30:35;;;;;;;91.13;54.13;;;3.60;99.90;;;;;;5075168;28;20532;-72
2021/03/09 04:33:02;;;;;;;99.73;55.43;;;3.60;99.90;;;;;;5077190;28;20454;-70
2021/03/09 04:35:29;;;;;;;88.47;54.90;;;3.60;99.90;;;;;;5082265;28;20459;-72
2021/03/09 04:37:57;;;;;;;97.33;53.57;;;3.60;99.90;;;;;;5074881;28;20826;-71
2021/03/09 04:40:25;;;;;;;76.97;49.77;;;3.70;99.90;;;;;;5075216;28;20459;-74
2021/03/09 04:42:51;;;;;;;97.53;53.73;;;3.70;99.90;;;;;;5080663;28;20463;-72
2021/03/09 04:45:19;;;;;;;86.37;53.60;;;3.70;99.90;;;;;;5079001;28;20827;-71
2021/03/09 04:47:46;;;;;;;92.67;53.17;;;3.70;99.90;;;;;;5069917;28;20524;-73
2021/03/09 04:50:16;;;;;;;83.97;52.77;;;3.60;99.90;;;;;;5083868;28;20960;-71
2021/03/09 04:52:45;;;;;;;89.50;52.47;;;3.70;99.90;;;;;;5080522;28;20527;-70
2021/03/09 04:55:14;;;;;;;89.20;52.60;;;3.70;99.90;;;;;;5073298;28;20463;-72
2021/03/09 04:57:41;;;;;;;92.00;54.20;;;3.60;99.90;;;;;;5075907;28;20493;-75
2021/03/09 05:00:10;;;;;;;99.20;55.10;;;3.60;99.90;;;;;;5077904;28;20467;-75
2021/03/09 05:02:38;;;;;;;85.00;52.47;;;3.60;99.90;;;;;;5071522;28;20450;-72
2021/03/09 05:05:06;;;;;;;95.23;54.40;;;3.60;99.90;;;;;;5082507;28;20495;-74
2021/03/09 05:07:32;;;;;;;78.23;51.73;;;3.50;99.90;;;;;;5079019;28;20489;-72
2021/03/09 05:09:58;;;;;;;92.63;55.10;;;3.50;99.90;;;;;;5079121;28;20475;-75
2021/03/09 05:12:25;;;;;;;88.93;52.87;;;3.60;99.90;;;;;;5079679;28;20781;-75
2021/03/09 05:14:52;;;;;;;95.07;56.33;;;3.60;99.90;;;;;;5068913;28;20517;-76
2021/03/09 05:17:18;;;;;;;87.70;51.77;;;3.60;99.90;;;;;;5074384;28;20455;-73
2021/03/09 05:19:45;;;;;;;88.70;52.50;;;3.70;99.90;;;;;;5077660;28;20475;-76
2021/03/09 05:22:12;;;;;;;81.73;48.17;;;3.60;99.90;;;;;;5072550;28;20458;-74
2021/03/09 05:24:38;;;;;;;93.43;53.23;;;3.70;99.90;;;;;;5066208;28;20808;-75
2021/03/09 05:27:05;;;;;;;100.10;54.97;;;3.60;99.90;;;;;;5078952;28;20477;-75
2021/03/09 05:29:33;;;;;;;97.90;53.73;;;3.50;99.90;;;;;;5069963;28;20455;-74
2021/03/09 05:31:59;;;;;;;88.10;52.30;;;3.50;99.90;;;;;;5074889;28;20490;-72
2021/03/09 05:34:26;;;;;;;89.97;54.20;;;3.60;99.90;;;;;;5077876;28;20515;-72
2021/03/09 05:36:53;;;;;;;80.13;52.90;;;3.60;99.90;;;;;;5076394;28;20460;-73
2021/03/09 05:39:19;;;;;;;92.47;53.93;;;3.60;99.90;;;;;;5079029;28;20462;-75
2021/03/09 05:41:48;;;;;;;83.63;52.07;;;3.60;99.90;;;;;;5074619;28;20467;-76
2021/03/09 05:44:15;;;;;;;75.23;47.77;;;3.60;99.90;;;;;;5072584;28;21483;-75
2021/03/09 05:46:41;;;;;;;71.93;50.20;;;3.60;99.90;;;;;;5070416;28;20470;-73
2021/03/09 05:49:11;;;;;;;87.07;50.47;;;3.50;99.90;;;;;;5074981;28;20981;-73
2021/03/09 05:51:38;;;;;;;84.07;51.60;;;3.60;99.90;;;;;;5074670;28;20497;-72
2021/03/09 05:54:05;;;;;;;94.27;50.53;;;3.60;99.90;;;;;;5070157;28;20508;-74
2021/03/09 05:56:32;;;;;;;83.17;53.70;;;3.60;99.90;;;;;;5067003;28;20823;-75
2021/03/09 05:58:59;;;;;;;83.00;51.67;;;3.60;99.90;;;;;;5075064;28;20458;-75
2021/03/09 06:01:27;;;;;;;78.10;50.07;;;3.70;99.90;;;;;;5076076;28;20462;-76
2021/03/09 06:03:53;;;;;;;84.40;52.00;;;3.50;99.90;;;;;;5075327;28;20800;-75
2021/03/09 06:06:19;;;;;;;98.40;55.07;;;3.50;99.90;;;;;;5081309;28;20485;-76
2021/03/09 06:08:46;;;;;;;93.57;55.50;;;3.50;99.90;;;;;;5073589;28;20522;-76
2021/03/09 06:11:16;;;;;;;77.40;46.20;;;3.40;99.90;;;;;;5077593;28;20899;-77
2021/03/09 06:13:43;;;;;;;87.70;53.87;;;3.40;99.90;;;;;;5077151;28;20470;-77
2021/03/09 06:16:10;;;;;;;99.90;54.83;;;3.40;99.90;;;;;;5073460;28;20974;-74
2021/03/09 06:18:37;;;;;;;96.47;53.20;;;3.40;99.90;;;;;;5073711;28;20946;-75
2021/03/09 06:21:11;;;;;;;83.50;52.97;;;3.50;99.90;;;;;;5073987;28;20461;-74
2021/03/09 06:23:38;;;;;;;83.17;51.53;;;3.50;99.90;;;;;;5082553;28;20451;-75
2021/03/09 06:26:33;;;;;;;95.97;55.53;;;3.50;99.90;;;;;;5072770;28;20471;-77
2021/03/09 06:29:11;;;;;;;89.23;52.20;;;3.50;99.90;;;;;;5074592;28;20464;-75
2021/03/09 06:31:38;;;;;;;84.27;52.97;;;3.50;99.90;;;;;;5075059;28;20623;-77
2021/03/09 06:34:23;;;;;;;85.87;51.00;;;3.50;99.90;;;;;;5072946;28;20458;-74
2021/03/09 06:37:07;;;;;;;93.73;54.10;;;3.50;99.90;;;;;;5068096;28;20455;-77
2021/03/09 06:39:49;;;;;;;80.60;51.90;;;3.50;99.90;;;;;;5055623;28;20840;-75
2021/03/09 06:42:18;;;;;;;79.90;53.80;;;3.60;99.90;;;;;;5067229;28;20528;-76
2021/03/09 06:44:49;;;;;;;89.07;53.83;;;3.40;99.90;;;;;;5072582;28;20531;-75
2021/03/09 06:47:16;;;;;;;93.40;52.07;;;3.50;99.90;;;;;;5071442;28;20466;-77
2021/03/09 06:49:50;;;;;;;110.43;55.77;;;3.60;99.90;;;;;;5072838;28;20617;-75
2021/03/09 06:52:18;;;;;;;99.80;57.33;;;3.50;99.90;;;;;;5071029;28;20580;-75
2021/03/09 06:54:45;;;;;;;104.20;60.20;;;3.40;99.90;;;;;;5072175;28;20462;-75
2021/03/09 06:57:12;;;;;;;102.27;59.53;;;3.40;99.90;;;;;;5073466;28;20489;-74
2021/03/09 06:59:42;;;;;;;89.43;55.53;;;3.50;99.90;;;;;;5076514;28;20553;-73
2021/03/09 07:02:11;;;;;;;94.77;56.10;;;3.60;99.90;;;;;;5063596;28;20470;-74
2021/03/09 07:04:39;;;;;;;82.83;53.00;;;3.50;99.90;;;;;;5074758;28;20466;-75
2021/03/09 07:07:06;;;;;;;88.50;56.10;;;3.40;99.90;;;;;;5069197;28;20910;-73
2021/03/09 07:09:33;;;;;;;100.90;54.30;;;3.60;99.90;;;;;;5065669;28;20515;-76
2021/03/09 07:12:02;;;;;;;87.43;54.73;;;3.60;99.90;;;;;;5070575;28;20486;-76
2021/03/09 07:14:31;;;;;;;82.57;48.87;;;3.60;99.90;;;;;;5071805;28;20515;-74
2021/03/09 07:17:01;;;;;;;93.90;53.50;;;3.50;99.90;;;;;;5075132;28;20465;-74
2021/03/09 07:19:36;;;;;;;78.93;48.30;;;3.40;99.90;;;;;;5072967;28;20611;-74
2021/03/09 07:22:04;;;;;;;80.17;49.83;;;3.40;99.90;;;;;;5074178;28;20477;-78
2021/03/09 07:24:32;;;;;;;92.70;52.80;;;3.50;99.90;;;;;;5058048;28;20470;-76
2021/03/09 07:27:05;;;;;;;78.40;49.70;;;3.40;99.90;;;;;;5065820;28;20470;-74
2021/03/09 07:29:36;;;;;;;89.17;54.17;;;3.40;99.90;;;;;;5065688;28;21198;-74
2021/03/09 07:32:06;;;;;;;97.33;54.80;;;3.60;99.90;;;;;;5070996;28;21116;-74
2021/03/09 07:34:35;;;;;;;87.70;54.07;;;3.70;99.90;;;;;;5064893;28;20519;-77
2021/03/09 07:37:02;;;;;;;71.90;46.10;;;3.70;99.90;;;;;;5064539;28;20816;-76
2021/03/09 07:39:29;;;;;;;98.43;55.10;;;3.60;99.90;;;;;;5062545;28;20463;-77
2021/03/09 07:41:56;;;;;;;99.70;53.80;;;3.60;99.90;;;;;;5064291;28;20490;-79
2021/03/09 07:44:24;;;;;;;97.17;53.90;;;3.70;99.90;;;;;;5059412;28;20531;-78
2021/03/09 07:46:53;;;;;;;77.10;50.97;;;3.60;99.90;;;;;;5072210;28;20469;-79
2021/03/09 07:49:22;;;;;;;76.23;46.07;;;3.70;99.90;;;;;;5066982;28;20466;-77
2021/03/09 07:52:10;;;;;;;68.23;44.30;;;3.70;99.90;;;;;;5061969;28;20488;-79
2021/03/09 07:54:37;;;;;;;74.00;49.03;;;3.70;99.90;;;;;;5056182;28;20466;-78
2021/03/09 07:57:20;;;;;;;98.40;52.50;;;3.60;99.90;;;;;;5061628;28;20455;-75
2021/03/09 08:00:00;;;;;;;74.10;45.30;;;3.60;99.90;;;;;;5059478;28;20482;-75
2021/03/09 08:02:45;;;;;;;82.57;50.93;;;3.60;99.90;;;;;;5059149;28;20464;-76
2021/03/09 08:05:15;;;;;;;83.60;54.07;;;3.70;99.90;;;;;;5047213;28;20494;-76
2021/03/09 08:08:01;;;;;;;87.63;53.10;;;3.60;99.90;;;;;;5065125;28;20592;-77
2021/03/09 08:10:44;;;;;;;81.70;52.77;;;3.70;99.90;;;;;;5068771;28;20574;-75
2021/03/09 08:13:26;;;;;;;64.93;42.43;;;3.90;99.90;;;;;;5068398;28;20555;-75
2021/03/09 08:16:32;;;;;;;80.30;49.13;;;3.70;99.90;;;;;;5060919;28;20459;-74
2021/03/09 08:19:07;;;;;;;73.00;49.67;;;3.70;99.90;;;;;;5061684;28;20550;-77
2021/03/09 08:21:56;;;;;;;103.03;53.93;;;3.60;99.90;;;;;;5070950;28;20515;-75
2021/03/09 08:25:05;;;;;;;93.37;51.93;;;3.70;99.90;;;;;;5072460;28;20467;-76
2021/03/09 08:27:41;;;;;;;77.67;46.57;;;3.70;99.90;;;;;;5066825;28;21073;-79
2021/03/09 08:30:45;;;;;;;80.47;50.50;;;3.80;99.90;;;;;;5068572;28;20964;-75
2021/03/09 08:36:48;;;;;;;55.77;44.07;;;3.60;99.90;;;;;;5027567;28;20505;-81
2021/03/09 08:39:17;;;;;;;61.90;44.00;;;3.60;99.90;;;;;;5065602;28;20467;-79
2021/03/09 08:41:57;;;;;;;17.27;16.47;;;3.40;99.90;;;;;;5064291;28;20879;-78
2021/03/09 08:44:24;;;;;;;18.23;17.33;;;3.40;99.90;;;;;;5063663;28;20466;-77
2021/03/09 08:46:56;;;;;;;18.70;17.70;;;3.30;99.90;;;;;;5060694;28;20463;-78
2021/03/09 08:49:44;;;;;;;17.63;16.73;;;3.40;99.90;;;;;;5056129;28;20470;-80
2021/03/09 08:52:12;;;;;;;18.30;17.40;;;3.40;99.90;;;;;;5058729;28;20483;-77
2021/03/09 08:54:41;;;;;;;17.97;17.07;;;3.30;99.90;;;;;;5062667;28;20846;-78
2021/03/09 08:57:10;;;;;;;18.00;17.10;;;3.40;99.90;;;;;;5058284;28;21062;-76
2021/03/09 08:59:38;;;;;;;17.50;16.60;;;3.40;99.90;;;;;;5058848;28;20583;-77
2021/03/09 09:02:07;;;;;;;17.97;17.07;;;3.40;99.90;;;;;;5056356;28;20478;-76
2021/03/09 09:04:34;;;;;;;17.57;16.77;;;3.60;99.90;;;;;;5054055;28;20462;-78
2021/03/09 09:07:16;;;;;;;17.30;16.50;;;3.50;99.90;;;;;;5061134;28;20482;-76
2021/03/09 09:09:44;;;;;;;16.70;15.90;;;3.40;99.90;;;;;;5060890;28;20618;-76
2021/03/09 09:12:27;;;;;;;17.57;16.77;;;3.40;99.90;;;;;;5052356;28;20498;-77
2021/03/09 09:15:22;;;;;;;17.03;16.23;;;3.70;99.90;;;;;;5056219;28;20523;-76
2021/03/09 09:17:51;;;;;;;17.13;16.33;;;3.60;99.90;;;;;;5058493;28;20459;-77
2021/03/09 09:20:23;;;;;;;17.00;16.20;;;3.80;99.90;;;;;;5057299;28;20799;-76
2021/03/09 09:22:51;;;;;;;17.80;16.90;;;4.00;99.90;;;;;;5055886;28;20458;-76
2021/03/09 09:25:23;;;;;;;18.00;17.10;;;3.90;99.90;;;;;;5059444;28;20565;-77
2021/03/09 09:27:51;;;;;;;18.23;17.33;;;4.10;99.90;;;;;;5054716;28;20465;-77
2021/03/09 09:30:21;;;;;;;17.00;16.20;;;4.20;99.90;;;;;;5055143;28;21103;-78
2021/03/09 09:32:55;;;;;;;18.03;17.13;;;4.10;99.90;;;;;;5056667;28;20495;-77
2021/03/09 09:35:24;;;;;;;18.73;17.83;;;4.10;99.90;;;;;;5059486;28;20530;-78
2021/03/09 09:37:54;;;;;;;18.10;17.23;;;4.20;99.90;;;;;;5057542;28;20568;-78
2021/03/09 09:40:24;;;;;;;18.20;17.30;;;4.30;99.90;;;;;;5056813;28;20451;-79
2021/03/09 09:42:58;;;;;;;23.70;21.67;;;4.10;99.90;;;;;;5056853;28;20542;-78
2021/03/09 09:45:26;;;;;;;17.60;16.80;;;4.00;99.90;;;;;;5070552;28;20929;-77
2021/03/09 09:47:53;;;;;;;16.73;15.93;;;4.20;99.90;;;;;;5063867;28;20467;-78
2021/03/09 09:50:21;;;;;;;17.00;16.20;;;4.20;99.90;;;;;;5068631;28;20492;-78
2021/03/09 09:52:59;;;;;;;18.20;17.30;;;4.10;99.90;;;;;;5063034;28;20630;-74
2021/03/09 09:55:27;;;;;;;17.37;16.57;;;4.30;99.90;;;;;;5064490;28;20568;-76
2021/03/09 09:57:58;;;;;;;17.53;16.73;;;4.30;99.90;;;;;;5061835;28;20622;-76
2021/03/09 10:00:27;;;;;;;18.90;18.00;;;4.20;99.90;;;;;;5060184;28;22522;-75
2021/03/09 10:03:15;;;;;;;18.50;17.60;;;4.20;99.90;;;;;;5076996;28;21172;-75
2021/03/09 10:05:42;;;;;;;17.50;16.70;;;4.20;99.90;;;;;;5068485;28;20473;-76
2021/03/09 10:08:10;;;;;;;17.50;16.70;;;4.30;99.90;;;;;;5072762;28;20496;-75
2021/03/09 10:10:39;;;;;;;17.07;16.27;;;4.50;99.90;;;;;;5071486;28;20462;-76
2021/03/09 10:13:22;;;;;;;16.60;15.80;;;4.50;99.90;;;;;;5071313;28;20488;-76
2021/03/09 10:15:50;;;;;;;16.90;16.10;;;4.50;99.90;;;;;;5071159;28;20463;-76
2021/03/09 10:18:28;;;;;;;17.10;16.30;;;4.60;99.90;;;;;;5066258;28;20467;-74
2021/03/09 10:21:03;;;;;;;15.63;14.93;;;4.70;99.90;;;;;;5073731;28;20565;-75
2021/03/09 10:23:29;;;;;;;16.70;15.90;;;4.60;99.90;;;;;;5067548;28;20492;-76
2021/03/09 10:26:01;;;;;;;16.13;15.43;;;4.70;99.90;;;;;;5069098;28;20899;-74
2021/03/09 10:28:27;;;;;;;16.73;15.93;;;4.70;99.90;;;;;;5075407;28;20866;-76
2021/03/09 10:30:54;;;;;;;16.30;15.50;;;4.80;99.90;;;;;;5069943;28;20470;-74
2021/03/09 10:33:21;;;;;;;16.33;15.53;;;4.80;99.90;;;;;;5071223;28;20457;-75
2021/03/09 10:36:06;;;;;;;16.43;15.63;;;4.90;99.90;;;;;;5061903;28;20463;-75
2021/03/09 10:38:33;;;;;;;16.23;15.50;;;4.90;99.90;;;;;;5067113;28;20612;-75
2021/03/09 10:41:00;;;;;;;16.50;15.70;;;4.80;99.90;;;;;;5071487;28;20561;-74
2021/03/09 10:43:43;;;;;;;17.70;16.90;;;5.00;99.90;;;;;;5062492;28;20942;-76
2021/03/09 10:46:11;;;;;;;16.47;15.67;;;5.10;99.90;;;;;;5065375;28;20462;-75
2021/03/09 10:48:37;;;;;;;15.67;14.97;;;5.30;99.90;;;;;;5065660;28;20923;-74
2021/03/09 10:51:14;;;;;;;16.37;15.60;;;5.50;99.90;;;;;;5059855;28;20533;-75
2021/03/09 10:53:41;;;;;;;13.50;12.90;;;5.70;99.90;;;;;;5068373;28;20871;-75
2021/03/09 10:56:08;;;;;;;13.97;13.37;;;5.90;99.90;;;;;;5063464;28;20476;-75
2021/03/09 10:58:35;;;;;;;14.40;13.80;;;5.90;99.90;;;;;;5061973;28;20481;-74
2021/03/09 11:01:01;;;;;;;14.10;13.50;;;5.80;99.90;;;;;;5066501;28;20843;-75
2021/03/09 11:03:28;;;;;;;13.90;13.30;;;5.90;99.90;;;;;;5059267;28;20464;-74
2021/03/09 11:05:54;;;;;;;14.03;13.43;;;5.80;99.90;;;;;;5062107;28;20477;-75
2021/03/09 11:08:22;;;;;;;14.30;13.70;;;5.80;99.90;;;;;;5072336;28;20489;-75
2021/03/09 11:10:48;;;;;;;14.13;13.53;;;5.70;99.90;;;;;;5066661;28;20474;-74
2021/03/09 11:13:17;;;;;;;13.77;13.17;;;5.70;99.90;;;;;;5076999;28;20494;-74
2021/03/09 11:15:43;;;;;;;13.63;13.03;;;5.80;99.90;;;;;;5074157;28;20466;-77
2021/03/09 11:18:09;;;;;;;13.67;13.07;;;5.80;99.90;;;;;;5075928;28;20973;-76
2021/03/09 11:20:36;;;;;;;14.07;13.47;;;5.70;99.90;;;;;;5076357;28;20463;-76
2021/03/09 11:23:03;;;;;;;14.03;13.43;;;5.70;99.90;;;;;;5067463;28;21048;-75
2021/03/09 11:25:29;;;;;;;13.77;13.17;;;5.90;99.90;;;;;;5072344;28;20456;-76
2021/03/09 11:27:56;;;;;;;14.20;13.60;;;6.00;99.90;;;;;;5070776;28;20460;-74
2021/03/09 11:30:24;;;;;;;14.20;13.60;;;6.10;99.90;;;;;;5067305;28;20991;-74
2021/03/09 11:32:50;;;;;;;14.20;13.60;;;6.30;99.90;;;;;;5065220;28;20490;-75
2021/03/09 11:35:17;;;;;;;13.87;13.27;;;6.20;99.90;;;;;;5065496;28;20464;-75
2021/03/09 11:37:43;;;;;;;14.10;13.50;;;6.30;99.90;;;;;;5074049;28;20467;-76
2021/03/09 11:40:11;;;;;;;14.30;13.70;;;6.50;99.90;;;;;;5064923;28;20471;-77
2021/03/09 11:42:38;;;;;;;14.13;13.53;;;6.40;99.90;;;;;;5068741;28;20905;-73
2021/03/09 11:45:07;;;;;;;14.40;13.80;;;6.50;99.90;;;;;;5068609;28;20505;-75
2021/03/09 11:47:34;;;;;;;13.63;13.03;;;6.50;99.90;;;;;;5067907;28;20585;-76
2021/03/09 11:50:02;;;;;;;15.17;14.47;;;6.60;99.90;;;;;;5079509;28;20469;-76
2021/03/09 11:52:29;;;;;;;14.17;13.57;;;6.60;99.90;;;;;;5075085;28;20482;-74
2021/03/09 11:54:55;;;;;;;14.03;13.43;;;6.70;99.90;;;;;;5070347;28;20447;-75
2021/03/09 11:57:22;;;;;;;14.47;13.77;;;7.00;99.90;;;;;;5065138;28;20460;-76
2021/03/09 11:59:48;;;;;;;14.27;13.67;;;7.00;99.90;;;;;;5061979;28;20467;-77
2021/03/09 12:02:15;;;;;;;14.20;13.60;;;7.00;99.90;;;;;;5055869;28;20463;-76
2021/03/09 12:04:42;;;;;;;14.00;13.40;;;7.20;99.90;;;;;;5060681;28;20457;-78
2021/03/09 12:07:08;;;;;;;14.57;13.87;;;7.40;99.90;;;;;;5066471;28;20486;-75
2021/03/09 12:09:35;;;;;;;14.10;13.50;;;7.60;99.90;;;;;;5065323;28;20469;-74
2021/03/09 12:12:01;;;;;;;14.47;13.77;;;7.90;99.90;;;;;;5069117;28;20486;-74
2021/03/09 12:14:28;;;;;;;14.80;14.10;;;7.90;99.90;;;;;;5066990;28;20905;-74
2021/03/09 12:16:54;;;;;;;15.97;15.17;;;7.70;99.90;;;;;;5077283;28;20765;-77
2021/03/09 12:19:21;;;;;;;15.40;14.70;;;7.50;99.90;;;;;;5069910;28;20473;-76
2021/03/09 12:21:48;;;;;;;14.87;14.17;;;7.30;99.90;;;;;;5062135;28;20936;-76
2021/03/09 12:24:15;;;;;;;14.87;14.17;;;7.20;99.90;;;;;;5059932;28;20469;-75
2021/03/09 12:26:41;;;;;;;15.00;14.30;;;7.10;99.90;;;;;;5063306;28;20475;-74
2021/03/09 12:29:07;;;;;;;14.47;13.77;;;7.00;99.90;;;;;;5059683;28;20466;-75
2021/03/09 12:31:34;;;;;;;14.10;13.50;;;6.80;99.90;;;;;;5066415;28;21357;-74
2021/03/09 12:34:01;;;;;;;24.03;20.80;;;6.60;99.90;;;;;;5068092;28;20463;-76
2021/03/09 12:36:27;;;;;;;79.90;45.70;;;6.50;99.90;;;;;;5070030;28;21013;-74
2021/03/09 12:38:55;;;;;;;70.13;46.20;;;6.50;99.90;;;;;;5069061;28;20488;-77
2021/03/09 12:41:21;;;;;;;88.70;49.40;;;6.30;99.90;;;;;;5060568;28;20456;-75
2021/03/09 12:43:47;;;;;;;83.33;45.23;;;6.10;99.90;;;;;;5069492;28;20523;-75
2021/03/09 12:46:14;;;;;;;88.83;46.60;;;6.20;99.90;;;;;;5077794;28;20470;-74
2021/03/09 12:48:40;;;;;;;80.07;47.13;;;6.20;99.90;;;;;;5074383;28;20475;-75
2021/03/09 12:51:07;;;;;;;91.67;49.00;;;6.10;99.90;;;;;;5072235;28;20553;-73
2021/03/09 12:53:33;;;;;;;79.73;49.13;;;6.10;99.90;;;;;;5072171;28;20467;-76